Atterbury, Indiana
Current Conditions -  °F | °C
As of 4:19 PM on Monday 24 Nov 2014 (Local Time) from KBAK Reporting Station
Broken Clouds Broken Clouds  
Wind Chill: 31°   Ceiling: 3500
Heat Index: 41°   Visibility: 10mi
Dew Point: 32°   Wind: 24mph
Humidity: 70%   Direction: 250°WSW
Pressure: 29.74"   Gusts: 40mph
Location:  39.3642°N, 85.9645°W
Report Text: KBAK 242119Z 25021G35KT 10SM BKN035 05/00 A2974 RMK PRESRR
Loading
Personal Weather Stations






























Interactive Weather Map New forecast layout! Learn more

10-Day Weather Forecast

Advertisements
Track Severe Weather on mobile